Phoenix, Illinois
Current Conditions -  °F | °C
As of 7:55 AM on Friday 24 Oct 2014 (Local Time) from KIGQ Reporting Station
Overcast Overcast  
Wind Chill: 49°   Ceiling: 2900
Heat Index: 49°   Visibility: 10mi
Dew Point: 46°   Wind: 3mph
Humidity: 89%   Direction: 210°SSW
Pressure: 30.08"   Gusts: NA
Location:  41.6125°N, 87.6495°W
Report Text: KIGQ 241255Z AUTO 21003KT 10SM OVC029 10/08 A3008 RMK AO2 T00970080
Loading
Personal Weather Stations






























Interactive Weather Map
Tropical Storm Tracking
New forecast layout! Learn more

10-Day Weather Forecast

Advertisements
Track Severe Weather on mobile